Glendale Luke AFB, Arizona
Current Conditions -  °F | °C
As of 1:58 PM on Saturday 22 Nov 2014 (Local Time) from KLUF Reporting Station
Clear Clear  
Wind Chill: 66°   Ceiling: Unl
Heat Index: 66°   Visibility: 8mi
Dew Point: 34°   Wind: 0mph
Humidity: 30%   Direction: NA
Pressure: 30.02"   Gusts: NA
Location:  33.5402°N, 112.349°W
Report Text: KLUF 222058Z AUTO 00000KT 8SM CLR 19/01 A3002 RMK AO2 SLP163
Loading
Personal Weather Stations






























Interactive Weather Map New forecast layout! Learn more

10-Day Weather Forecast

Advertisements
Track Severe Weather on mobile